sensor_id;sensor_type;location;lat;lon;timestamp;P1;durP1;ratioP1;P2;durP2;ratioP2
44204;SDS011;30163;42.698;23.344;2022-10-31T00:01:26;14.93;;;6.38;;
44204;SDS011;30163;42.698;23.344;2022-10-31T00:03:54;13.05;;;6.28;;
44204;SDS011;30163;42.698;23.344;2022-10-31T00:06:20;15.35;;;6.80;;
44204;SDS011;30163;42.698;23.344;2022-10-31T00:08:46;14.82;;;6.88;;
44204;SDS011;30163;42.698;23.344;2022-10-31T00:11:12;15.30;;;6.00;;
44204;SDS011;30163;42.698;23.344;2022-10-31T00:13:38;15.65;;;6.30;;
44204;SDS011;30163;42.698;23.344;2022-10-31T00:16:03;16.42;;;6.82;;
44204;SDS011;30163;42.698;23.344;2022-10-31T00:18:29;12.70;;;6.18;;
44204;SDS011;30163;42.698;23.344;2022-10-31T00:20:58;20.90;;;7.13;;
44204;SDS011;30163;42.698;23.344;2022-10-31T00:23:26;10.13;;;6.05;;
44204;SDS011;30163;42.698;23.344;2022-10-31T00:25:52;17.48;;;6.82;;
44204;SDS011;30163;42.698;23.344;2022-10-31T00:28:17;18.70;;;6.65;;
44204;SDS011;30163;42.698;23.344;2022-10-31T00:30:43;20.10;;;7.50;;
44204;SDS011;30163;42.698;23.344;2022-10-31T00:33:08;15.68;;;7.90;;
44204;SDS011;30163;42.698;23.344;2022-10-31T00:35:33;16.00;;;6.32;;
44204;SDS011;30163;42.698;23.344;2022-10-31T00:37:59;18.25;;;7.07;;
44204;SDS011;30163;42.698;23.344;2022-10-31T00:40:24;16.60;;;7.43;;
44204;SDS011;30163;42.698;23.344;2022-10-31T00:42:50;13.48;;;7.38;;
44204;SDS011;30163;42.698;23.344;2022-10-31T00:45:15;16.70;;;7.05;;
44204;SDS011;30163;42.698;23.344;2022-10-31T00:47:40;15.05;;;6.70;;
44204;SDS011;30163;42.698;23.344;2022-10-31T00:50:06;17.08;;;7.50;;
44204;SDS011;30163;42.698;23.344;2022-10-31T00:52:32;15.32;;;7.90;;
44204;SDS011;30163;42.698;23.344;2022-10-31T00:54:58;28.67;;;9.68;;
44204;SDS011;30163;42.698;23.344;2022-10-31T00:57:23;20.27;;;7.35;;
44204;SDS011;30163;42.698;23.344;2022-10-31T00:59:48;22.33;;;7.60;;
44204;SDS011;30163;42.698;23.344;2022-10-31T01:02:14;14.50;;;7.13;;
44204;SDS011;30163;42.698;23.344;2022-10-31T01:04:39;16.85;;;7.22;;
44204;SDS011;30163;42.698;23.344;2022-10-31T01:07:04;15.63;;;7.38;;
44204;SDS011;30163;42.698;23.344;2022-10-31T01:09:30;17.42;;;7.43;;
44204;SDS011;30163;42.698;23.344;2022-10-31T01:11:55;17.98;;;7.90;;
44204;SDS011;30163;42.698;23.344;2022-10-31T01:14:21;15.23;;;8.05;;
44204;SDS011;30163;42.698;23.344;2022-10-31T01:16:46;16.33;;;7.95;;
44204;SDS011;30163;42.698;23.344;2022-10-31T01:19:11;18.42;;;9.02;;
44204;SDS011;30163;42.698;23.344;2022-10-31T01:21:37;16.33;;;9.20;;
44204;SDS011;30163;42.698;23.344;2022-10-31T01:24:02;20.17;;;9.15;;
44204;SDS011;30163;42.698;23.344;2022-10-31T01:26:29;24.67;;;9.73;;
44204;SDS011;30163;42.698;23.344;2022-10-31T01:29:02;25.67;;;10.45;;
44204;SDS011;30163;42.698;23.344;2022-10-31T01:31:30;22.30;;;11.40;;
44204;SDS011;30163;42.698;23.344;2022-10-31T01:33:57;25.92;;;11.30;;
44204;SDS011;30163;42.698;23.344;2022-10-31T01:36:24;25.90;;;12.00;;
44204;SDS011;30163;42.698;23.344;2022-10-31T01:38:55;33.00;;;12.82;;
44204;SDS011;30163;42.698;23.344;2022-10-31T01:41:23;26.92;;;13.10;;
44204;SDS011;30163;42.698;23.344;2022-10-31T01:43:55;29.73;;;13.73;;
44204;SDS011;30163;42.698;23.344;2022-10-31T01:46:23;28.65;;;14.18;;
44204;SDS011;30163;42.698;23.344;2022-10-31T01:48:53;29.02;;;13.93;;
44204;SDS011;30163;42.698;23.344;2022-10-31T01:51:19;26.77;;;12.57;;
44204;SDS011;30163;42.698;23.344;2022-10-31T01:53:46;27.92;;;13.50;;
44204;SDS011;30163;42.698;23.344;2022-10-31T01:56:12;27.90;;;14.38;;
44204;SDS011;30163;42.698;23.344;2022-10-31T01:58:39;24.35;;;12.95;;
44204;SDS011;30163;42.698;23.344;2022-10-31T02:01:04;26.05;;;13.38;;
44204;SDS011;30163;42.698;23.344;2022-10-31T02:03:30;41.80;;;14.15;;
44204;SDS011;30163;42.698;23.344;2022-10-31T02:05:56;32.03;;;12.80;;
44204;SDS011;30163;42.698;23.344;2022-10-31T02:10:55;27.80;;;13.23;;
44204;SDS011;30163;42.698;23.344;2022-10-31T02:13:21;22.38;;;13.05;;
44204;SDS011;30163;42.698;23.344;2022-10-31T02:15:49;27.60;;;12.75;;
44204;SDS011;30163;42.698;23.344;2022-10-31T02:18:16;39.85;;;15.15;;
44204;SDS011;30163;42.698;23.344;2022-10-31T02:26:52;30.95;;;15.00;;
44204;SDS011;30163;42.698;23.344;2022-10-31T02:32:26;30.75;;;15.45;;
44204;SDS011;30163;42.698;23.344;2022-10-31T02:38:13;39.13;;;17.65;;
44204;SDS011;30163;42.698;23.344;2022-10-31T02:40:28;36.97;;;16.90;;
44204;SDS011;30163;42.698;23.344;2022-10-31T02:43:06;34.25;;;16.23;;
44204;SDS011;30163;42.698;23.344;2022-10-31T02:45:58;39.95;;;17.95;;
44204;SDS011;30163;42.698;23.344;2022-10-31T02:48:28;46.63;;;18.60;;
44204;SDS011;30163;42.698;23.344;2022-10-31T02:50:58;40.63;;;18.83;;
44204;SDS011;30163;42.698;23.344;2022-10-31T02:53:25;47.33;;;20.30;;
44204;SDS011;30163;42.698;23.344;2022-10-31T02:55:58;43.05;;;17.58;;
44204;SDS011;30163;42.698;23.344;2022-10-31T02:58:26;43.83;;;17.08;;
44204;SDS011;30163;42.698;23.344;2022-10-31T03:12:26;45.38;;;18.27;;
44204;SDS011;30163;42.698;23.344;2022-10-31T03:17:26;36.55;;;16.50;;
44204;SDS011;30163;42.698;23.344;2022-10-31T03:19:57;38.33;;;16.52;;
44204;SDS011;30163;42.698;23.344;2022-10-31T03:22:24;43.08;;;18.85;;
44204;SDS011;30163;42.698;23.344;2022-10-31T03:24:51;43.65;;;16.95;;
44204;SDS011;30163;42.698;23.344;2022-10-31T03:27:24;38.95;;;18.15;;
44204;SDS011;30163;42.698;23.344;2022-10-31T03:29:51;41.28;;;16.92;;
44204;SDS011;30163;42.698;23.344;2022-10-31T03:32:21;37.95;;;15.98;;
44204;SDS011;30163;42.698;23.344;2022-10-31T03:34:50;46.45;;;17.42;;
44204;SDS011;30163;42.698;23.344;2022-10-31T03:37:19;36.15;;;17.90;;
44204;SDS011;30163;42.698;23.344;2022-10-31T03:39:46;42.22;;;17.80;;
44204;SDS011;30163;42.698;23.344;2022-10-31T03:42:18;41.58;;;16.63;;
44204;SDS011;30163;42.698;23.344;2022-10-31T03:44:46;33.60;;;16.42;;
44204;SDS011;30163;42.698;23.344;2022-10-31T03:47:16;33.85;;;14.85;;
44204;SDS011;30163;42.698;23.344;2022-10-31T03:49:41;35.17;;;15.30;;
44204;SDS011;30163;42.698;23.344;2022-10-31T03:52:49;41.65;;;15.25;;
44204;SDS011;30163;42.698;23.344;2022-10-31T03:57:55;35.90;;;17.63;;
44204;SDS011;30163;42.698;23.344;2022-10-31T04:00:24;39.35;;;16.42;;
44204;SDS011;30163;42.698;23.344;2022-10-31T04:02:58;38.80;;;16.73;;
44204;SDS011;30163;42.698;23.344;2022-10-31T04:05:26;37.15;;;16.92;;
44204;SDS011;30163;42.698;23.344;2022-10-31T04:07:53;43.85;;;17.08;;
44204;SDS011;30163;42.698;23.344;2022-10-31T04:10:19;45.15;;;17.10;;
44204;SDS011;30163;42.698;23.344;2022-10-31T04:12:48;35.60;;;17.08;;
44204;SDS011;30163;42.698;23.344;2022-10-31T04:15:16;33.33;;;16.58;;
44204;SDS011;30163;42.698;23.344;2022-10-31T04:17:42;56.72;;;17.80;;
44204;SDS011;30163;42.698;23.344;2022-10-31T04:20:11;42.97;;;17.55;;
44204;SDS011;30163;42.698;23.344;2022-10-31T04:22:41;53.85;;;18.55;;
44204;SDS011;30163;42.698;23.344;2022-10-31T04:25:06;56.20;;;18.58;;
44204;SDS011;30163;42.698;23.344;2022-10-31T04:27:32;48.60;;;18.52;;
44204;SDS011;30163;42.698;23.344;2022-10-31T04:29:58;40.22;;;19.58;;
44204;SDS011;30163;42.698;23.344;2022-10-31T04:32:24;46.67;;;19.00;;
44204;SDS011;30163;42.698;23.344;2022-10-31T04:34:50;48.50;;;19.17;;
44204;SDS011;30163;42.698;23.344;2022-10-31T04:37:15;49.05;;;18.55;;
44204;SDS011;30163;42.698;23.344;2022-10-31T04:39:40;50.83;;;18.73;;
44204;SDS011;30163;42.698;23.344;2022-10-31T04:42:06;47.65;;;18.80;;
44204;SDS011;30163;42.698;23.344;2022-10-31T04:44:31;43.28;;;18.05;;
44204;SDS011;30163;42.698;23.344;2022-10-31T04:46:56;39.80;;;17.13;;
44204;SDS011;30163;42.698;23.344;2022-10-31T04:49:22;49.25;;;18.85;;
44204;SDS011;30163;42.698;23.344;2022-10-31T04:51:47;36.47;;;16.85;;
44204;SDS011;30163;42.698;23.344;2022-10-31T04:54:13;48.15;;;17.80;;
44204;SDS011;30163;42.698;23.344;2022-10-31T04:56:38;55.22;;;17.83;;
44204;SDS011;30163;42.698;23.344;2022-10-31T04:59:03;38.65;;;18.42;;
44204;SDS011;30163;42.698;23.344;2022-10-31T05:01:29;59.65;;;16.92;;
44204;SDS011;30163;42.698;23.344;2022-10-31T05:03:54;43.03;;;18.08;;
44204;SDS011;30163;42.698;23.344;2022-10-31T05:06:20;46.53;;;19.55;;
44204;SDS011;30163;42.698;23.344;2022-10-31T05:08:45;49.47;;;19.00;;
44204;SDS011;30163;42.698;23.344;2022-10-31T05:11:10;63.53;;;19.17;;
44204;SDS011;30163;42.698;23.344;2022-10-31T05:13:36;66.65;;;21.17;;
44204;SDS011;30163;42.698;23.344;2022-10-31T05:16:01;73.38;;;24.10;;
44204;SDS011;30163;42.698;23.344;2022-10-31T05:18:28;58.90;;;22.05;;
44204;SDS011;30163;42.698;23.344;2022-10-31T05:20:53;53.42;;;23.05;;
44204;SDS011;30163;42.698;23.344;2022-10-31T05:23:19;75.90;;;26.52;;
44204;SDS011;30163;42.698;23.344;2022-10-31T05:25:44;119.97;;;32.88;;
44204;SDS011;30163;42.698;23.344;2022-10-31T05:28:09;66.13;;;25.83;;
44204;SDS011;30163;42.698;23.344;2022-10-31T05:30:35;57.00;;;24.73;;
44204;SDS011;30163;42.698;23.344;2022-10-31T05:33:00;59.00;;;19.98;;
44204;SDS011;30163;42.698;23.344;2022-10-31T05:35:30;69.95;;;23.85;;
44204;SDS011;30163;42.698;23.344;2022-10-31T05:37:56;71.38;;;32.03;;
44204;SDS011;30163;42.698;23.344;2022-10-31T05:40:23;93.88;;;45.08;;
44204;SDS011;30163;42.698;23.344;2022-10-31T05:42:50;79.07;;;27.10;;
44204;SDS011;30163;42.698;23.344;2022-10-31T05:45:16;68.40;;;28.63;;
44204;SDS011;30163;42.698;23.344;2022-10-31T05:47:49;86.80;;;29.02;;
44204;SDS011;30163;42.698;23.344;2022-10-31T05:50:15;69.88;;;29.08;;
44204;SDS011;30163;42.698;23.344;2022-10-31T05:52:40;75.93;;;25.00;;
44204;SDS011;30163;42.698;23.344;2022-10-31T05:55:06;59.17;;;24.83;;
44204;SDS011;30163;42.698;23.344;2022-10-31T05:57:32;60.03;;;25.02;;
44204;SDS011;30163;42.698;23.344;2022-10-31T05:59:58;108.63;;;43.58;;
44204;SDS011;30163;42.698;23.344;2022-10-31T06:02:23;87.05;;;31.63;;
44204;SDS011;30163;42.698;23.344;2022-10-31T06:04:49;76.82;;;27.65;;
44204;SDS011;30163;42.698;23.344;2022-10-31T06:07:14;66.80;;;25.10;;
44204;SDS011;30163;42.698;23.344;2022-10-31T06:09:40;80.32;;;24.33;;
44204;SDS011;30163;42.698;23.344;2022-10-31T06:12:05;73.35;;;24.10;;
44204;SDS011;30163;42.698;23.344;2022-10-31T06:14:30;54.13;;;21.20;;
44204;SDS011;30163;42.698;23.344;2022-10-31T06:16:56;50.55;;;21.38;;
44204;SDS011;30163;42.698;23.344;2022-10-31T06:19:21;44.00;;;18.08;;
44204;SDS011;30163;42.698;23.344;2022-10-31T06:21:47;60.05;;;20.98;;
44204;SDS011;30163;42.698;23.344;2022-10-31T06:24:12;67.45;;;22.50;;
44204;SDS011;30163;42.698;23.344;2022-10-31T06:26:37;69.50;;;23.23;;
44204;SDS011;30163;42.698;23.344;2022-10-31T06:29:03;50.00;;;22.08;;
44204;SDS011;30163;42.698;23.344;2022-10-31T06:31:28;51.65;;;22.55;;
44204;SDS011;30163;42.698;23.344;2022-10-31T06:33:54;56.80;;;21.80;;
44204;SDS011;30163;42.698;23.344;2022-10-31T06:36:19;57.75;;;20.60;;
44204;SDS011;30163;42.698;23.344;2022-10-31T06:38:44;54.10;;;21.80;;
44204;SDS011;30163;42.698;23.344;2022-10-31T06:41:10;57.53;;;20.67;;
44204;SDS011;30163;42.698;23.344;2022-10-31T06:43:35;61.63;;;19.50;;
44204;SDS011;30163;42.698;23.344;2022-10-31T06:46:04;46.00;;;18.02;;
44204;SDS011;30163;42.698;23.344;2022-10-31T06:48:30;48.15;;;16.58;;
44204;SDS011;30163;42.698;23.344;2022-10-31T06:50:59;52.92;;;18.20;;
44204;SDS011;30163;42.698;23.344;2022-10-31T06:53:25;38.55;;;16.75;;
44204;SDS011;30163;42.698;23.344;2022-10-31T06:55:57;48.33;;;17.48;;
44204;SDS011;30163;42.698;23.344;2022-10-31T06:58:23;37.42;;;16.65;;
44204;SDS011;30163;42.698;23.344;2022-10-31T07:00:48;39.88;;;15.68;;
44204;SDS011;30163;42.698;23.344;2022-10-31T07:03:14;32.92;;;16.38;;
44204;SDS011;30163;42.698;23.344;2022-10-31T07:05:43;39.50;;;18.15;;
44204;SDS011;30163;42.698;23.344;2022-10-31T07:08:09;34.60;;;17.30;;
44204;SDS011;30163;42.698;23.344;2022-10-31T07:10:36;40.67;;;18.10;;
44204;SDS011;30163;42.698;23.344;2022-10-31T07:13:03;36.15;;;18.38;;
44204;SDS011;30163;42.698;23.344;2022-10-31T07:15:33;45.05;;;18.70;;
44204;SDS011;30163;42.698;23.344;2022-10-31T07:18:04;40.85;;;19.23;;
44204;SDS011;30163;42.698;23.344;2022-10-31T07:20:30;39.35;;;18.40;;
44204;SDS011;30163;42.698;23.344;2022-10-31T07:22:56;34.20;;;18.50;;
44204;SDS011;30163;42.698;23.344;2022-10-31T07:25:22;55.15;;;20.63;;
44204;SDS011;30163;42.698;23.344;2022-10-31T07:27:48;40.35;;;21.02;;
44204;SDS011;30163;42.698;23.344;2022-10-31T07:30:14;44.45;;;22.02;;
44204;SDS011;30163;42.698;23.344;2022-10-31T07:32:40;47.60;;;20.85;;
44204;SDS011;30163;42.698;23.344;2022-10-31T07:35:07;41.67;;;20.17;;
44204;SDS011;30163;42.698;23.344;2022-10-31T07:37:33;48.88;;;21.10;;
44204;SDS011;30163;42.698;23.344;2022-10-31T07:39:59;39.30;;;19.77;;
44204;SDS011;30163;42.698;23.344;2022-10-31T07:42:24;42.85;;;21.23;;
44204;SDS011;30163;42.698;23.344;2022-10-31T07:44:50;40.17;;;20.48;;
44204;SDS011;30163;42.698;23.344;2022-10-31T07:47:15;50.22;;;21.55;;
44204;SDS011;30163;42.698;23.344;2022-10-31T07:49:40;45.22;;;21.50;;
44204;SDS011;30163;42.698;23.344;2022-10-31T07:52:06;58.90;;;23.60;;
44204;SDS011;30163;42.698;23.344;2022-10-31T07:54:31;50.08;;;22.23;;
44204;SDS011;30163;42.698;23.344;2022-10-31T07:56:56;38.22;;;20.33;;
44204;SDS011;30163;42.698;23.344;2022-10-31T07:59:22;46.65;;;20.20;;
44204;SDS011;30163;42.698;23.344;2022-10-31T08:01:47;49.75;;;20.50;;
44204;SDS011;30163;42.698;23.344;2022-10-31T08:04:12;40.78;;;20.02;;
44204;SDS011;30163;42.698;23.344;2022-10-31T08:06:38;41.97;;;20.70;;
44204;SDS011;30163;42.698;23.344;2022-10-31T08:09:03;55.40;;;21.42;;
44204;SDS011;30163;42.698;23.344;2022-10-31T08:11:29;45.58;;;20.67;;
44204;SDS011;30163;42.698;23.344;2022-10-31T08:13:54;51.70;;;21.88;;
44204;SDS011;30163;42.698;23.344;2022-10-31T08:16:19;44.30;;;19.48;;
44204;SDS011;30163;42.698;23.344;2022-10-31T08:18:45;68.40;;;20.58;;
44204;SDS011;30163;42.698;23.344;2022-10-31T08:21:10;40.30;;;21.10;;
44204;SDS011;30163;42.698;23.344;2022-10-31T08:23:35;53.22;;;21.15;;
44204;SDS011;30163;42.698;23.344;2022-10-31T08:26:01;41.85;;;20.27;;
44204;SDS011;30163;42.698;23.344;2022-10-31T08:28:26;51.42;;;21.90;;
44204;SDS011;30163;42.698;23.344;2022-10-31T08:30:52;42.63;;;20.92;;
44204;SDS011;30163;42.698;23.344;2022-10-31T08:33:17;59.42;;;22.02;;
44204;SDS011;30163;42.698;23.344;2022-10-31T08:35:43;60.67;;;20.85;;
44204;SDS011;30163;42.698;23.344;2022-10-31T08:38:09;47.08;;;21.10;;
44204;SDS011;30163;42.698;23.344;2022-10-31T08:40:36;50.58;;;21.52;;
44204;SDS011;30163;42.698;23.344;2022-10-31T08:43:03;58.20;;;20.83;;
44204;SDS011;30163;42.698;23.344;2022-10-31T08:45:31;41.58;;;19.95;;
44204;SDS011;30163;42.698;23.344;2022-10-31T08:47:58;47.78;;;20.83;;
44204;SDS011;30163;42.698;23.344;2022-10-31T08:50:25;42.42;;;19.58;;
44204;SDS011;30163;42.698;23.344;2022-10-31T08:52:51;37.00;;;18.92;;
44204;SDS011;30163;42.698;23.344;2022-10-31T08:55:16;49.58;;;21.30;;
44204;SDS011;30163;42.698;23.344;2022-10-31T08:57:41;47.40;;;19.77;;
44204;SDS011;30163;42.698;23.344;2022-10-31T09:00:07;41.00;;;18.95;;
44204;SDS011;30163;42.698;23.344;2022-10-31T09:02:33;38.78;;;18.67;;
44204;SDS011;30163;42.698;23.344;2022-10-31T09:04:58;34.42;;;18.65;;
44204;SDS011;30163;42.698;23.344;2022-10-31T09:07:24;40.58;;;19.33;;
44204;SDS011;30163;42.698;23.344;2022-10-31T09:09:49;38.13;;;17.98;;
44204;SDS011;30163;42.698;23.344;2022-10-31T09:12:14;42.67;;;21.20;;
44204;SDS011;30163;42.698;23.344;2022-10-31T09:14:40;34.65;;;18.50;;
44204;SDS011;30163;42.698;23.344;2022-10-31T09:17:05;34.50;;;18.05;;
44204;SDS011;30163;42.698;23.344;2022-10-31T09:19:31;35.88;;;17.23;;
44204;SDS011;30163;42.698;23.344;2022-10-31T09:21:56;40.75;;;17.75;;
44204;SDS011;30163;42.698;23.344;2022-10-31T09:24:21;40.83;;;18.17;;
44204;SDS011;30163;42.698;23.344;2022-10-31T09:26:47;42.63;;;17.65;;
44204;SDS011;30163;42.698;23.344;2022-10-31T09:29:12;34.03;;;16.88;;
44204;SDS011;30163;42.698;23.344;2022-10-31T09:31:38;33.67;;;15.73;;
44204;SDS011;30163;42.698;23.344;2022-10-31T09:34:03;53.28;;;17.15;;
44204;SDS011;30163;42.698;23.344;2022-10-31T09:36:29;47.60;;;16.27;;
44204;SDS011;30163;42.698;23.344;2022-10-31T09:38:54;40.65;;;15.55;;
44204;SDS011;30163;42.698;23.344;2022-10-31T09:41:29;42.03;;;15.40;;
44204;SDS011;30163;42.698;23.344;2022-10-31T09:52:26;27.63;;;13.15;;
44204;SDS011;30163;42.698;23.344;2022-10-31T09:55:08;30.73;;;13.60;;
44204;SDS011;30163;42.698;23.344;2022-10-31T09:57:39;24.73;;;13.27;;
44204;SDS011;30163;42.698;23.344;2022-10-31T10:00:06;32.72;;;13.85;;
44204;SDS011;30163;42.698;23.344;2022-10-31T10:05:10;39.45;;;14.65;;
44204;SDS011;30163;42.698;23.344;2022-10-31T10:13:30;24.88;;;12.07;;
44204;SDS011;30163;42.698;23.344;2022-10-31T10:24:33;25.85;;;11.32;;
44204;SDS011;30163;42.698;23.344;2022-10-31T10:29:50;24.25;;;11.23;;
44204;SDS011;30163;42.698;23.344;2022-10-31T10:32:22;98.72;;;34.55;;
44204;SDS011;30163;42.698;23.344;2022-10-31T10:34:50;29.75;;;10.98;;
44204;SDS011;30163;42.698;23.344;2022-10-31T10:37:27;29.58;;;12.20;;
44204;SDS011;30163;42.698;23.344;2022-10-31T10:39:56;17.80;;;7.22;;
44204;SDS011;30163;42.698;23.344;2022-10-31T10:42:24;17.77;;;8.10;;
44204;SDS011;30163;42.698;23.344;2022-10-31T10:45:18;23.17;;;8.07;;
44204;SDS011;30163;42.698;23.344;2022-10-31T10:48:20;24.55;;;7.95;;
44204;SDS011;30163;42.698;23.344;2022-10-31T10:50:51;15.80;;;7.57;;
44204;SDS011;30163;42.698;23.344;2022-10-31T10:56:18;18.95;;;7.85;;
44204;SDS011;30163;42.698;23.344;2022-10-31T10:58:51;21.42;;;9.52;;
44204;SDS011;30163;42.698;23.344;2022-10-31T11:01:17;17.88;;;8.63;;
44204;SDS011;30163;42.698;23.344;2022-10-31T11:03:42;19.30;;;7.60;;
44204;SDS011;30163;42.698;23.344;2022-10-31T11:06:18;23.63;;;7.55;;
44204;SDS011;30163;42.698;23.344;2022-10-31T11:08:47;15.00;;;8.07;;
44204;SDS011;30163;42.698;23.344;2022-10-31T11:11:22;36.33;;;8.18;;
44204;SDS011;30163;42.698;23.344;2022-10-31T11:13:52;12.90;;;6.22;;
44204;SDS011;30163;42.698;23.344;2022-10-31T11:18:53;19.50;;;5.72;;
44204;SDS011;30163;42.698;23.344;2022-10-31T11:21:28;19.92;;;6.60;;
44204;SDS011;30163;42.698;23.344;2022-10-31T11:26:35;19.38;;;7.10;;
44204;SDS011;30163;42.698;23.344;2022-10-31T11:29:03;26.15;;;6.57;;
44204;SDS011;30163;42.698;23.344;2022-10-31T11:31:29;18.15;;;5.88;;
44204;SDS011;30163;42.698;23.344;2022-10-31T11:34:02;17.90;;;5.63;;
44204;SDS011;30163;42.698;23.344;2022-10-31T11:36:29;24.75;;;5.72;;
44204;SDS011;30163;42.698;23.344;2022-10-31T11:38:55;16.23;;;5.32;;
44204;SDS011;30163;42.698;23.344;2022-10-31T11:43:57;13.52;;;5.25;;
44204;SDS011;30163;42.698;23.344;2022-10-31T11:46:35;16.27;;;5.47;;
44204;SDS011;30163;42.698;23.344;2022-10-31T11:49:02;15.82;;;5.43;;
44204;SDS011;30163;42.698;23.344;2022-10-31T11:51:29;23.38;;;6.18;;
44204;SDS011;30163;42.698;23.344;2022-10-31T11:54:00;19.23;;;5.20;;
44204;SDS011;30163;42.698;23.344;2022-10-31T11:56:39;17.50;;;5.53;;
44204;SDS011;30163;42.698;23.344;2022-10-31T11:59:14;24.13;;;6.50;;
44204;SDS011;30163;42.698;23.344;2022-10-31T12:01:45;40.83;;;6.80;;
44204;SDS011;30163;42.698;23.344;2022-10-31T12:04:12;14.35;;;5.15;;
44204;SDS011;30163;42.698;23.344;2022-10-31T12:06:39;13.73;;;5.35;;
44204;SDS011;30163;42.698;23.344;2022-10-31T12:09:21;17.67;;;4.90;;
44204;SDS011;30163;42.698;23.344;2022-10-31T12:14:38;20.63;;;5.55;;
44204;SDS011;30163;42.698;23.344;2022-10-31T12:17:16;20.33;;;5.68;;
44204;SDS011;30163;42.698;23.344;2022-10-31T12:49:44;19.15;;;5.93;;
44204;SDS011;30163;42.698;23.344;2022-10-31T12:58:01;34.50;;;7.20;;
44204;SDS011;30163;42.698;23.344;2022-10-31T13:00:29;29.48;;;6.57;;
44204;SDS011;30163;42.698;23.344;2022-10-31T13:03:09;17.88;;;5.63;;
44204;SDS011;30163;42.698;23.344;2022-10-31T13:05:44;18.23;;;6.00;;
44204;SDS011;30163;42.698;23.344;2022-10-31T13:08:13;12.32;;;5.32;;
44204;SDS011;30163;42.698;23.344;2022-10-31T13:10:48;13.48;;;5.43;;
44204;SDS011;30163;42.698;23.344;2022-10-31T13:21:21;16.95;;;5.25;;
44204;SDS011;30163;42.698;23.344;2022-10-31T13:23:50;10.65;;;4.90;;
44204;SDS011;30163;42.698;23.344;2022-10-31T13:26:42;27.73;;;5.47;;
44204;SDS011;30163;42.698;23.344;2022-10-31T13:29:15;11.85;;;5.18;;
44204;SDS011;30163;42.698;23.344;2022-10-31T13:31:52;19.23;;;5.30;;
44204;SDS011;30163;42.698;23.344;2022-10-31T13:45:11;25.73;;;5.82;;
44204;SDS011;30163;42.698;23.344;2022-10-31T13:47:41;22.65;;;5.75;;
44204;SDS011;30163;42.698;23.344;2022-10-31T13:50:24;20.52;;;5.85;;
44204;SDS011;30163;42.698;23.344;2022-10-31T13:52:51;22.73;;;6.15;;
44204;SDS011;30163;42.698;23.344;2022-10-31T13:55:37;11.98;;;4.32;;
44204;SDS011;30163;42.698;23.344;2022-10-31T13:58:24;16.35;;;4.88;;
44204;SDS011;30163;42.698;23.344;2022-10-31T14:03:35;19.65;;;4.95;;
44204;SDS011;30163;42.698;23.344;2022-10-31T14:06:02;17.67;;;4.97;;
44204;SDS011;30163;42.698;23.344;2022-10-31T14:08:27;24.27;;;5.65;;
44204;SDS011;30163;42.698;23.344;2022-10-31T14:10:54;17.35;;;5.75;;
44204;SDS011;30163;42.698;23.344;2022-10-31T14:13:22;20.67;;;6.03;;
44204;SDS011;30163;42.698;23.344;2022-10-31T14:16:01;22.25;;;5.75;;
44204;SDS011;30163;42.698;23.344;2022-10-31T14:20:58;22.40;;;6.47;;
44204;SDS011;30163;42.698;23.344;2022-10-31T14:28:42;16.83;;;5.93;;
44204;SDS011;30163;42.698;23.344;2022-10-31T14:34:00;29.90;;;6.30;;
44204;SDS011;30163;42.698;23.344;2022-10-31T14:36:48;24.08;;;5.72;;
44204;SDS011;30163;42.698;23.344;2022-10-31T14:39:17;22.23;;;6.28;;
44204;SDS011;30163;42.698;23.344;2022-10-31T14:42:01;16.23;;;6.35;;
44204;SDS011;30163;42.698;23.344;2022-10-31T14:47:38;29.63;;;7.40;;
44204;SDS011;30163;42.698;23.344;2022-10-31T14:53:04;28.42;;;6.40;;
44204;SDS011;30163;42.698;23.344;2022-10-31T14:55:30;15.23;;;5.82;;
44204;SDS011;30163;42.698;23.344;2022-10-31T14:57:57;29.45;;;5.88;;
44204;SDS011;30163;42.698;23.344;2022-10-31T15:00:25;29.08;;;6.28;;
44204;SDS011;30163;42.698;23.344;2022-10-31T15:03:06;21.05;;;6.57;;
44204;SDS011;30163;42.698;23.344;2022-10-31T15:05:40;23.08;;;6.55;;
44204;SDS011;30163;42.698;23.344;2022-10-31T15:08:26;31.20;;;6.32;;
44204;SDS011;30163;42.698;23.344;2022-10-31T15:10:52;25.70;;;6.72;;
44204;SDS011;30163;42.698;23.344;2022-10-31T15:13:19;20.85;;;6.35;;
44204;SDS011;30163;42.698;23.344;2022-10-31T15:15:46;19.70;;;6.25;;
44204;SDS011;30163;42.698;23.344;2022-10-31T15:18:13;17.75;;;6.22;;
44204;SDS011;30163;42.698;23.344;2022-10-31T15:20:42;19.20;;;6.47;;
44204;SDS011;30163;42.698;23.344;2022-10-31T15:23:10;31.33;;;7.65;;
44204;SDS011;30163;42.698;23.344;2022-10-31T15:25:39;34.55;;;8.05;;
44204;SDS011;30163;42.698;23.344;2022-10-31T15:28:12;38.35;;;7.78;;
44204;SDS011;30163;42.698;23.344;2022-10-31T15:30:39;39.47;;;7.07;;
44204;SDS011;30163;42.698;23.344;2022-10-31T15:33:18;27.52;;;6.40;;
44204;SDS011;30163;42.698;23.344;2022-10-31T15:35:54;37.30;;;6.90;;
44204;SDS011;30163;42.698;23.344;2022-10-31T15:38:20;32.00;;;7.53;;
44204;SDS011;30163;42.698;23.344;2022-10-31T15:40:53;30.98;;;7.22;;
44204;SDS011;30163;42.698;23.344;2022-10-31T15:43:22;33.50;;;7.90;;
44204;SDS011;30163;42.698;23.344;2022-10-31T15:45:47;33.05;;;7.32;;
44204;SDS011;30163;42.698;23.344;2022-10-31T15:48:17;31.10;;;7.30;;
44204;SDS011;30163;42.698;23.344;2022-10-31T15:50:51;24.10;;;6.80;;
44204;SDS011;30163;42.698;23.344;2022-10-31T15:53:20;24.05;;;7.20;;
44204;SDS011;30163;42.698;23.344;2022-10-31T15:55:49;44.00;;;6.93;;
44204;SDS011;30163;42.698;23.344;2022-10-31T15:58:16;42.70;;;8.27;;
44204;SDS011;30163;42.698;23.344;2022-10-31T16:00:42;40.53;;;8.95;;
44204;SDS011;30163;42.698;23.344;2022-10-31T16:03:24;38.28;;;8.35;;
44204;SDS011;30163;42.698;23.344;2022-10-31T16:05:52;36.20;;;9.32;;
44204;SDS011;30163;42.698;23.344;2022-10-31T16:10:54;39.70;;;8.05;;
44204;SDS011;30163;42.698;23.344;2022-10-31T16:13:28;27.48;;;7.90;;
44204;SDS011;30163;42.698;23.344;2022-10-31T16:15:56;37.33;;;6.57;;
44204;SDS011;30163;42.698;23.344;2022-10-31T16:18:25;27.23;;;6.68;;
44204;SDS011;30163;42.698;23.344;2022-10-31T16:20:52;32.67;;;9.70;;
44204;SDS011;30163;42.698;23.344;2022-10-31T16:23:20;31.83;;;9.10;;
44204;SDS011;30163;42.698;23.344;2022-10-31T16:25:47;35.97;;;8.35;;
44204;SDS011;30163;42.698;23.344;2022-10-31T16:28:17;41.53;;;8.98;;
44204;SDS011;30163;42.698;23.344;2022-10-31T16:30:47;39.40;;;10.80;;
44204;SDS011;30163;42.698;23.344;2022-10-31T16:35:47;40.85;;;9.93;;
44204;SDS011;30163;42.698;23.344;2022-10-31T16:38:13;52.13;;;9.90;;
44204;SDS011;30163;42.698;23.344;2022-10-31T16:40:38;50.03;;;11.95;;
44204;SDS011;30163;42.698;23.344;2022-10-31T16:43:04;71.35;;;18.00;;
44204;SDS011;30163;42.698;23.344;2022-10-31T16:45:30;54.65;;;12.32;;
44204;SDS011;30163;42.698;23.344;2022-10-31T16:48:01;50.83;;;13.23;;
44204;SDS011;30163;42.698;23.344;2022-10-31T16:50:28;44.80;;;12.07;;
44204;SDS011;30163;42.698;23.344;2022-10-31T16:52:54;47.45;;;10.85;;